sensor_id;sensor_type;location;lat;lon;timestamp;P1;durP1;ratioP1;P2;durP2;ratioP2
59512;SDS011;45330;51.634;5.562;2023-06-05T00:00:23;14.32;;;4.28;;
59512;SDS011;45330;51.634;5.562;2023-06-05T00:02:48;10.23;;;3.80;;
59512;SDS011;45330;51.634;5.562;2023-06-05T00:05:14;14.73;;;4.38;;
59512;SDS011;45330;51.634;5.562;2023-06-05T00:07:40;9.57;;;4.03;;
59512;SDS011;45330;51.634;5.562;2023-06-05T00:10:06;13.60;;;4.43;;
59512;SDS011;45330;51.634;5.562;2023-06-05T00:12:32;11.68;;;3.83;;
59512;SDS011;45330;51.634;5.562;2023-06-05T00:14:58;10.82;;;3.92;;
59512;SDS011;45330;51.634;5.562;2023-06-05T00:17:24;13.70;;;4.32;;
59512;SDS011;45330;51.634;5.562;2023-06-05T00:19:49;13.45;;;4.47;;
59512;SDS011;45330;51.634;5.562;2023-06-05T00:22:15;13.50;;;4.10;;
59512;SDS011;45330;51.634;5.562;2023-06-05T00:24:40;14.30;;;4.47;;
59512;SDS011;45330;51.634;5.562;2023-06-05T00:27:05;11.40;;;4.20;;
59512;SDS011;45330;51.634;5.562;2023-06-05T00:29:31;11.30;;;4.22;;
59512;SDS011;45330;51.634;5.562;2023-06-05T00:31:56;10.38;;;3.92;;
59512;SDS011;45330;51.634;5.562;2023-06-05T00:34:22;11.77;;;4.13;;
59512;SDS011;45330;51.634;5.562;2023-06-05T00:36:47;13.32;;;4.78;;
59512;SDS011;45330;51.634;5.562;2023-06-05T00:39:15;12.73;;;4.40;;
59512;SDS011;45330;51.634;5.562;2023-06-05T00:41:43;10.82;;;4.15;;
59512;SDS011;45330;51.634;5.562;2023-06-05T00:44:10;11.20;;;4.32;;
59512;SDS011;45330;51.634;5.562;2023-06-05T00:46:35;12.63;;;4.32;;
59512;SDS011;45330;51.634;5.562;2023-06-05T00:49:01;14.82;;;4.57;;
59512;SDS011;45330;51.634;5.562;2023-06-05T00:51:27;13.23;;;4.45;;
59512;SDS011;45330;51.634;5.562;2023-06-05T00:53:52;13.02;;;4.43;;
59512;SDS011;45330;51.634;5.562;2023-06-05T00:56:18;13.68;;;5.03;;
59512;SDS011;45330;51.634;5.562;2023-06-05T00:58:46;14.82;;;4.90;;
59512;SDS011;45330;51.634;5.562;2023-06-05T01:01:12;14.38;;;4.72;;
59512;SDS011;45330;51.634;5.562;2023-06-05T01:03:40;12.75;;;4.35;;
59512;SDS011;45330;51.634;5.562;2023-06-05T01:06:05;14.98;;;5.10;;
59512;SDS011;45330;51.634;5.562;2023-06-05T01:08:34;11.85;;;4.70;;
59512;SDS011;45330;51.634;5.562;2023-06-05T01:11:16;11.65;;;4.25;;
59512;SDS011;45330;51.634;5.562;2023-06-05T01:13:50;13.85;;;4.78;;
59512;SDS011;45330;51.634;5.562;2023-06-05T01:16:25;15.63;;;5.25;;
59512;SDS011;45330;51.634;5.562;2023-06-05T01:18:56;15.05;;;4.78;;
59512;SDS011;45330;51.634;5.562;2023-06-05T01:21:27;14.27;;;4.85;;
59512;SDS011;45330;51.634;5.562;2023-06-05T01:23:54;12.52;;;5.28;;
59512;SDS011;45330;51.634;5.562;2023-06-05T01:26:20;13.50;;;4.53;;
59512;SDS011;45330;51.634;5.562;2023-06-05T01:28:52;12.20;;;4.57;;
59512;SDS011;45330;51.634;5.562;2023-06-05T01:31:19;15.45;;;5.25;;
59512;SDS011;45330;51.634;5.562;2023-06-05T01:33:48;16.70;;;5.53;;
59512;SDS011;45330;51.634;5.562;2023-06-05T01:36:21;15.70;;;5.95;;
59512;SDS011;45330;51.634;5.562;2023-06-05T01:38:48;17.17;;;5.43;;
59512;SDS011;45330;51.634;5.562;2023-06-05T01:41:14;15.00;;;5.40;;
59512;SDS011;45330;51.634;5.562;2023-06-05T01:43:41;14.63;;;5.53;;
59512;SDS011;45330;51.634;5.562;2023-06-05T01:46:08;14.43;;;5.35;;
59512;SDS011;45330;51.634;5.562;2023-06-05T01:48:34;14.05;;;5.63;;
59512;SDS011;45330;51.634;5.562;2023-06-05T01:51:00;15.77;;;5.20;;
59512;SDS011;45330;51.634;5.562;2023-06-05T01:53:27;19.27;;;5.63;;
59512;SDS011;45330;51.634;5.562;2023-06-05T01:55:53;14.50;;;5.25;;
59512;SDS011;45330;51.634;5.562;2023-06-05T01:58:22;14.80;;;5.97;;
59512;SDS011;45330;51.634;5.562;2023-06-05T02:00:52;15.25;;;5.82;;
59512;SDS011;45330;51.634;5.562;2023-06-05T02:03:18;13.98;;;5.40;;
59512;SDS011;45330;51.634;5.562;2023-06-05T02:05:44;15.57;;;5.78;;
59512;SDS011;45330;51.634;5.562;2023-06-05T02:08:11;15.50;;;5.40;;
59512;SDS011;45330;51.634;5.562;2023-06-05T02:10:37;16.48;;;6.07;;
59512;SDS011;45330;51.634;5.562;2023-06-05T02:13:08;17.48;;;6.32;;
59512;SDS011;45330;51.634;5.562;2023-06-05T02:15:33;15.30;;;6.05;;
59512;SDS011;45330;51.634;5.562;2023-06-05T02:17:59;16.25;;;6.05;;
59512;SDS011;45330;51.634;5.562;2023-06-05T02:20:25;14.57;;;5.88;;
59512;SDS011;45330;51.634;5.562;2023-06-05T02:22:53;17.70;;;6.10;;
59512;SDS011;45330;51.634;5.562;2023-06-05T02:25:19;14.77;;;6.15;;
59512;SDS011;45330;51.634;5.562;2023-06-05T02:27:46;16.38;;;6.15;;
59512;SDS011;45330;51.634;5.562;2023-06-05T02:30:11;18.67;;;6.43;;
59512;SDS011;45330;51.634;5.562;2023-06-05T02:32:37;17.45;;;6.40;;
59512;SDS011;45330;51.634;5.562;2023-06-05T02:35:06;17.58;;;6.97;;
59512;SDS011;45330;51.634;5.562;2023-06-05T02:37:33;18.92;;;7.22;;
59512;SDS011;45330;51.634;5.562;2023-06-05T02:40:02;16.08;;;6.70;;
59512;SDS011;45330;51.634;5.562;2023-06-05T02:42:32;19.02;;;7.13;;
59512;SDS011;45330;51.634;5.562;2023-06-05T02:44:58;17.70;;;6.55;;
59512;SDS011;45330;51.634;5.562;2023-06-05T02:47:23;17.38;;;6.95;;
59512;SDS011;45330;51.634;5.562;2023-06-05T02:49:49;17.67;;;6.95;;
59512;SDS011;45330;51.634;5.562;2023-06-05T02:52:14;16.40;;;6.70;;
59512;SDS011;45330;51.634;5.562;2023-06-05T02:54:39;17.27;;;6.93;;
59512;SDS011;45330;51.634;5.562;2023-06-05T02:57:05;19.33;;;7.47;;
59512;SDS011;45330;51.634;5.562;2023-06-05T02:59:31;19.58;;;7.18;;
59512;SDS011;45330;51.634;5.562;2023-06-05T03:01:57;20.42;;;7.90;;
59512;SDS011;45330;51.634;5.562;2023-06-05T03:04:22;18.40;;;7.07;;
59512;SDS011;45330;51.634;5.562;2023-06-05T03:06:49;21.88;;;7.90;;
59512;SDS011;45330;51.634;5.562;2023-06-05T03:09:15;18.08;;;7.32;;
59512;SDS011;45330;51.634;5.562;2023-06-05T03:11:41;19.80;;;8.30;;
59512;SDS011;45330;51.634;5.562;2023-06-05T03:14:07;18.20;;;7.03;;
59512;SDS011;45330;51.634;5.562;2023-06-05T03:16:32;18.92;;;7.57;;
59512;SDS011;45330;51.634;5.562;2023-06-05T03:19:06;17.25;;;7.13;;
59512;SDS011;45330;51.634;5.562;2023-06-05T03:21:32;20.92;;;8.20;;
59512;SDS011;45330;51.634;5.562;2023-06-05T03:23:58;17.50;;;7.40;;
59512;SDS011;45330;51.634;5.562;2023-06-05T03:26:23;20.65;;;8.05;;
59512;SDS011;45330;51.634;5.562;2023-06-05T03:28:50;18.45;;;7.85;;
59512;SDS011;45330;51.634;5.562;2023-06-05T03:31:16;19.05;;;7.97;;
59512;SDS011;45330;51.634;5.562;2023-06-05T03:33:41;18.20;;;8.05;;
59512;SDS011;45330;51.634;5.562;2023-06-05T03:36:06;18.33;;;7.82;;
59512;SDS011;45330;51.634;5.562;2023-06-05T03:38:33;20.55;;;7.80;;
59512;SDS011;45330;51.634;5.562;2023-06-05T03:40:58;19.58;;;7.63;;
59512;SDS011;45330;51.634;5.562;2023-06-05T03:43:24;19.60;;;7.75;;
59512;SDS011;45330;51.634;5.562;2023-06-05T03:45:52;18.35;;;8.13;;
59512;SDS011;45330;51.634;5.562;2023-06-05T03:48:18;22.67;;;9.05;;
59512;SDS011;45330;51.634;5.562;2023-06-05T03:50:46;20.77;;;7.90;;
59512;SDS011;45330;51.634;5.562;2023-06-05T03:53:12;20.92;;;8.23;;
59512;SDS011;45330;51.634;5.562;2023-06-05T03:55:38;19.20;;;8.25;;
59512;SDS011;45330;51.634;5.562;2023-06-05T03:58:10;19.75;;;8.52;;
59512;SDS011;45330;51.634;5.562;2023-06-05T04:00:40;20.70;;;8.13;;
59512;SDS011;45330;51.634;5.562;2023-06-05T04:03:07;19.33;;;8.45;;
59512;SDS011;45330;51.634;5.562;2023-06-05T04:05:34;20.83;;;8.85;;
59512;SDS011;45330;51.634;5.562;2023-06-05T04:08:00;20.45;;;8.63;;
59512;SDS011;45330;51.634;5.562;2023-06-05T04:10:25;21.02;;;9.20;;
59512;SDS011;45330;51.634;5.562;2023-06-05T04:12:50;20.50;;;8.45;;
59512;SDS011;45330;51.634;5.562;2023-06-05T04:15:16;21.42;;;9.25;;
59512;SDS011;45330;51.634;5.562;2023-06-05T04:17:41;20.00;;;8.38;;
59512;SDS011;45330;51.634;5.562;2023-06-05T04:20:06;20.33;;;9.02;;
59512;SDS011;45330;51.634;5.562;2023-06-05T04:22:38;19.85;;;9.07;;
59512;SDS011;45330;51.634;5.562;2023-06-05T04:25:04;20.48;;;8.75;;
59512;SDS011;45330;51.634;5.562;2023-06-05T04:27:30;21.60;;;9.50;;
59512;SDS011;45330;51.634;5.562;2023-06-05T04:29:57;20.95;;;9.30;;
59512;SDS011;45330;51.634;5.562;2023-06-05T04:32:22;22.55;;;9.60;;
59512;SDS011;45330;51.634;5.562;2023-06-05T04:34:47;20.50;;;8.40;;
59512;SDS011;45330;51.634;5.562;2023-06-05T04:37:13;18.58;;;7.80;;
59512;SDS011;45330;51.634;5.562;2023-06-05T04:39:38;20.00;;;8.20;;
59512;SDS011;45330;51.634;5.562;2023-06-05T04:42:04;19.92;;;7.97;;
59512;SDS011;45330;51.634;5.562;2023-06-05T04:44:30;17.92;;;7.65;;
59512;SDS011;45330;51.634;5.562;2023-06-05T04:46:56;18.05;;;7.60;;
59512;SDS011;45330;51.634;5.562;2023-06-05T04:49:22;17.92;;;7.60;;
59512;SDS011;45330;51.634;5.562;2023-06-05T04:51:50;21.85;;;7.60;;
59512;SDS011;45330;51.634;5.562;2023-06-05T04:54:18;18.60;;;7.68;;
59512;SDS011;45330;51.634;5.562;2023-06-05T04:56:44;19.73;;;7.65;;
59512;SDS011;45330;51.634;5.562;2023-06-05T04:59:10;18.20;;;7.75;;
59512;SDS011;45330;51.634;5.562;2023-06-05T05:01:36;17.52;;;7.60;;
59512;SDS011;45330;51.634;5.562;2023-06-05T05:04:01;16.88;;;7.07;;
59512;SDS011;45330;51.634;5.562;2023-06-05T05:06:27;19.45;;;7.95;;
59512;SDS011;45330;51.634;5.562;2023-06-05T05:08:52;20.35;;;7.75;;
59512;SDS011;45330;51.634;5.562;2023-06-05T05:11:19;18.88;;;7.60;;
59512;SDS011;45330;51.634;5.562;2023-06-05T05:13:45;18.42;;;8.00;;
59512;SDS011;45330;51.634;5.562;2023-06-05T05:16:10;20.88;;;8.32;;
59512;SDS011;45330;51.634;5.562;2023-06-05T05:18:40;19.83;;;8.25;;
59512;SDS011;45330;51.634;5.562;2023-06-05T05:21:06;18.87;;;7.83;;
59512;SDS011;45330;51.634;5.562;2023-06-05T05:23:32;22.02;;;8.13;;
59512;SDS011;45330;51.634;5.562;2023-06-05T05:25:58;19.50;;;8.20;;
59512;SDS011;45330;51.634;5.562;2023-06-05T05:28:24;20.00;;;8.35;;
59512;SDS011;45330;51.634;5.562;2023-06-05T05:30:51;18.55;;;7.95;;
59512;SDS011;45330;51.634;5.562;2023-06-05T05:33:17;18.75;;;7.88;;
59512;SDS011;45330;51.634;5.562;2023-06-05T05:35:43;19.35;;;8.73;;
59512;SDS011;45330;51.634;5.562;2023-06-05T05:38:09;18.67;;;8.02;;
59512;SDS011;45330;51.634;5.562;2023-06-05T05:40:34;19.30;;;8.00;;
59512;SDS011;45330;51.634;5.562;2023-06-05T05:43:00;18.75;;;8.38;;
59512;SDS011;45330;51.634;5.562;2023-06-05T05:45:25;19.35;;;7.90;;
59512;SDS011;45330;51.634;5.562;2023-06-05T05:47:50;18.63;;;7.80;;
59512;SDS011;45330;51.634;5.562;2023-06-05T05:50:16;17.35;;;7.63;;
59512;SDS011;45330;51.634;5.562;2023-06-05T05:52:41;17.20;;;7.55;;
59512;SDS011;45330;51.634;5.562;2023-06-05T05:55:08;17.58;;;7.65;;
59512;SDS011;45330;51.634;5.562;2023-06-05T05:57:33;17.30;;;6.82;;
59512;SDS011;45330;51.634;5.562;2023-06-05T05:59:59;18.88;;;7.68;;
59512;SDS011;45330;51.634;5.562;2023-06-05T06:02:25;17.08;;;7.20;;
59512;SDS011;45330;51.634;5.562;2023-06-05T06:04:50;17.90;;;7.45;;
59512;SDS011;45330;51.634;5.562;2023-06-05T06:07:16;15.80;;;7.07;;
59512;SDS011;45330;51.634;5.562;2023-06-05T06:09:41;18.23;;;7.60;;
59512;SDS011;45330;51.634;5.562;2023-06-05T06:12:07;18.75;;;7.50;;
59512;SDS011;45330;51.634;5.562;2023-06-05T06:14:33;18.00;;;7.82;;
59512;SDS011;45330;51.634;5.562;2023-06-05T06:16:59;17.63;;;7.40;;
59512;SDS011;45330;51.634;5.562;2023-06-05T06:19:25;16.58;;;6.97;;
59512;SDS011;45330;51.634;5.562;2023-06-05T06:21:52;17.60;;;7.15;;
59512;SDS011;45330;51.634;5.562;2023-06-05T06:24:20;20.20;;;7.65;;
59512;SDS011;45330;51.634;5.562;2023-06-05T06:26:46;18.73;;;7.90;;
59512;SDS011;45330;51.634;5.562;2023-06-05T06:29:13;18.55;;;7.28;;
59512;SDS011;45330;51.634;5.562;2023-06-05T06:31:48;18.85;;;6.90;;
59512;SDS011;45330;51.634;5.562;2023-06-05T06:34:15;16.20;;;6.55;;
59512;SDS011;45330;51.634;5.562;2023-06-05T06:36:41;16.17;;;6.55;;
59512;SDS011;45330;51.634;5.562;2023-06-05T06:39:11;17.95;;;6.63;;
59512;SDS011;45330;51.634;5.562;2023-06-05T06:41:37;16.50;;;6.38;;
59512;SDS011;45330;51.634;5.562;2023-06-05T06:44:04;17.05;;;7.18;;
59512;SDS011;45330;51.634;5.562;2023-06-05T06:46:29;15.50;;;6.53;;
59512;SDS011;45330;51.634;5.562;2023-06-05T06:48:56;17.48;;;6.68;;
59512;SDS011;45330;51.634;5.562;2023-06-05T06:51:21;17.08;;;6.47;;
59512;SDS011;45330;51.634;5.562;2023-06-05T06:53:50;18.50;;;6.47;;
59512;SDS011;45330;51.634;5.562;2023-06-05T06:56:16;14.40;;;6.38;;
59512;SDS011;45330;51.634;5.562;2023-06-05T06:58:42;16.98;;;6.28;;
59512;SDS011;45330;51.634;5.562;2023-06-05T07:01:09;20.58;;;6.68;;
59512;SDS011;45330;51.634;5.562;2023-06-05T07:03:36;16.58;;;6.72;;
59512;SDS011;45330;51.634;5.562;2023-06-05T07:06:01;15.07;;;6.28;;
59512;SDS011;45330;51.634;5.562;2023-06-05T07:08:27;17.52;;;7.00;;
59512;SDS011;45330;51.634;5.562;2023-06-05T07:10:52;16.45;;;6.78;;
59512;SDS011;45330;51.634;5.562;2023-06-05T07:13:21;15.63;;;6.82;;
59512;SDS011;45330;51.634;5.562;2023-06-05T07:15:47;16.77;;;6.95;;
59512;SDS011;45330;51.634;5.562;2023-06-05T07:18:13;15.77;;;7.10;;
59512;SDS011;45330;51.634;5.562;2023-06-05T07:20:39;15.70;;;6.28;;
59512;SDS011;45330;51.634;5.562;2023-06-05T07:23:04;16.60;;;6.85;;
59512;SDS011;45330;51.634;5.562;2023-06-05T07:25:30;18.17;;;6.75;;
59512;SDS011;45330;51.634;5.562;2023-06-05T07:27:55;19.63;;;6.55;;
59512;SDS011;45330;51.634;5.562;2023-06-05T07:30:21;18.27;;;7.32;;
59512;SDS011;45330;51.634;5.562;2023-06-05T07:32:46;19.27;;;7.70;;
59512;SDS011;45330;51.634;5.562;2023-06-05T07:35:12;16.08;;;6.82;;
59512;SDS011;45330;51.634;5.562;2023-06-05T07:37:39;21.85;;;7.82;;
59512;SDS011;45330;51.634;5.562;2023-06-05T07:40:04;18.15;;;7.63;;
59512;SDS011;45330;51.634;5.562;2023-06-05T07:42:30;19.27;;;7.28;;
59512;SDS011;45330;51.634;5.562;2023-06-05T07:44:56;16.48;;;6.30;;
59512;SDS011;45330;51.634;5.562;2023-06-05T07:47:22;18.58;;;6.82;;
59512;SDS011;45330;51.634;5.562;2023-06-05T07:50:00;19.27;;;6.93;;
59512;SDS011;45330;51.634;5.562;2023-06-05T07:52:29;17.42;;;7.30;;
59512;SDS011;45330;51.634;5.562;2023-06-05T07:54:55;17.58;;;6.38;;
59512;SDS011;45330;51.634;5.562;2023-06-05T07:57:20;18.13;;;6.88;;
59512;SDS011;45330;51.634;5.562;2023-06-05T07:59:46;19.17;;;7.22;;
59512;SDS011;45330;51.634;5.562;2023-06-05T08:02:14;15.10;;;6.35;;
59512;SDS011;45330;51.634;5.562;2023-06-05T08:04:40;17.85;;;6.50;;
59512;SDS011;45330;51.634;5.562;2023-06-05T08:07:05;16.95;;;6.20;;
59512;SDS011;45330;51.634;5.562;2023-06-05T08:09:31;15.02;;;6.38;;
59512;SDS011;45330;51.634;5.562;2023-06-05T08:11:58;17.65;;;7.05;;
59512;SDS011;45330;51.634;5.562;2023-06-05T08:14:24;16.23;;;6.47;;
59512;SDS011;45330;51.634;5.562;2023-06-05T08:16:50;18.15;;;7.30;;
59512;SDS011;45330;51.634;5.562;2023-06-05T08:19:17;19.42;;;7.50;;
59512;SDS011;45330;51.634;5.562;2023-06-05T08:21:42;17.90;;;7.32;;
59512;SDS011;45330;51.634;5.562;2023-06-05T08:24:08;18.63;;;6.82;;
59512;SDS011;45330;51.634;5.562;2023-06-05T08:26:33;18.55;;;6.93;;
59512;SDS011;45330;51.634;5.562;2023-06-05T08:28:59;16.85;;;7.13;;
59512;SDS011;45330;51.634;5.562;2023-06-05T08:31:24;18.17;;;6.60;;
59512;SDS011;45330;51.634;5.562;2023-06-05T08:33:50;18.23;;;6.78;;
59512;SDS011;45330;51.634;5.562;2023-06-05T08:36:16;17.77;;;7.07;;
59512;SDS011;45330;51.634;5.562;2023-06-05T08:38:42;17.80;;;6.88;;
59512;SDS011;45330;51.634;5.562;2023-06-05T08:41:08;17.40;;;6.82;;
59512;SDS011;45330;51.634;5.562;2023-06-05T08:43:38;18.63;;;7.30;;
59512;SDS011;45330;51.634;5.562;2023-06-05T08:46:06;17.33;;;6.70;;
59512;SDS011;45330;51.634;5.562;2023-06-05T08:48:36;16.52;;;6.07;;
59512;SDS011;45330;51.634;5.562;2023-06-05T08:51:12;16.40;;;6.22;;
59512;SDS011;45330;51.634;5.562;2023-06-05T08:53:41;16.35;;;6.32;;
59512;SDS011;45330;51.634;5.562;2023-06-05T08:56:11;19.45;;;6.60;;
59512;SDS011;45330;51.634;5.562;2023-06-05T08:58:38;17.17;;;6.65;;
59512;SDS011;45330;51.634;5.562;2023-06-05T09:01:04;18.15;;;6.57;;
59512;SDS011;45330;51.634;5.562;2023-06-05T09:03:32;15.75;;;6.18;;
59512;SDS011;45330;51.634;5.562;2023-06-05T09:05:58;17.88;;;6.70;;
59512;SDS011;45330;51.634;5.562;2023-06-05T09:08:30;17.23;;;6.00;;
59512;SDS011;45330;51.634;5.562;2023-06-05T09:13:48;17.10;;;6.95;;
59512;SDS011;45330;51.634;5.562;2023-06-05T09:16:13;16.13;;;6.60;;
59512;SDS011;45330;51.634;5.562;2023-06-05T09:18:52;19.30;;;6.97;;
59512;SDS011;45330;51.634;5.562;2023-06-05T09:21:18;16.30;;;5.70;;
59512;SDS011;45330;51.634;5.562;2023-06-05T09:23:44;18.05;;;6.35;;
59512;SDS011;45330;51.634;5.562;2023-06-05T09:26:10;17.42;;;6.80;;
59512;SDS011;45330;51.634;5.562;2023-06-05T09:28:54;15.48;;;6.40;;
59512;SDS011;45330;51.634;5.562;2023-06-05T09:33:53;15.95;;;5.38;;
59512;SDS011;45330;51.634;5.562;2023-06-05T09:36:20;15.45;;;5.65;;
59512;SDS011;45330;51.634;5.562;2023-06-05T09:38:46;17.02;;;5.75;;
59512;SDS011;45330;51.634;5.562;2023-06-05T09:41:13;15.50;;;5.97;;
59512;SDS011;45330;51.634;5.562;2023-06-05T09:43:45;16.33;;;5.75;;
59512;SDS011;45330;51.634;5.562;2023-06-05T09:46:12;17.23;;;5.90;;
59512;SDS011;45330;51.634;5.562;2023-06-05T09:48:39;14.70;;;5.38;;
59512;SDS011;45330;51.634;5.562;2023-06-05T09:51:12;16.80;;;5.70;;
59512;SDS011;45330;51.634;5.562;2023-06-05T09:53:46;15.13;;;5.68;;
59512;SDS011;45330;51.634;5.562;2023-06-05T09:56:14;16.20;;;5.57;;
59512;SDS011;45330;51.634;5.562;2023-06-05T09:58:46;14.07;;;5.60;;
59512;SDS011;45330;51.634;5.562;2023-06-05T10:01:14;16.00;;;5.65;;
59512;SDS011;45330;51.634;5.562;2023-06-05T10:03:42;14.48;;;5.38;;
59512;SDS011;45330;51.634;5.562;2023-06-05T10:06:12;16.73;;;5.78;;
59512;SDS011;45330;51.634;5.562;2023-06-05T10:08:38;15.85;;;5.57;;
59512;SDS011;45330;51.634;5.562;2023-06-05T10:11:04;15.13;;;5.45;;
59512;SDS011;45330;51.634;5.562;2023-06-05T10:13:32;14.40;;;5.60;;
59512;SDS011;45330;51.634;5.562;2023-06-05T10:15:57;15.55;;;5.93;;
59512;SDS011;45330;51.634;5.562;2023-06-05T10:18:24;17.00;;;6.15;;
59512;SDS011;45330;51.634;5.562;2023-06-05T10:20:50;16.15;;;5.15;;
59512;SDS011;45330;51.634;5.562;2023-06-05T10:23:15;12.52;;;5.10;;
59512;SDS011;45330;51.634;5.562;2023-06-05T10:25:43;14.13;;;5.38;;
59512;SDS011;45330;51.634;5.562;2023-06-05T10:30:55;14.13;;;5.15;;
59512;SDS011;45330;51.634;5.562;2023-06-05T10:39:09;13.80;;;4.57;;
59512;SDS011;45330;51.634;5.562;2023-06-05T10:41:36;15.35;;;5.75;;
59512;SDS011;45330;51.634;5.562;2023-06-05T10:44:02;16.08;;;5.32;;
59512;SDS011;45330;51.634;5.562;2023-06-05T10:51:33;15.82;;;5.20;;
59512;SDS011;45330;51.634;5.562;2023-06-05T10:54:05;14.63;;;5.35;;
59512;SDS011;45330;51.634;5.562;2023-06-05T10:59:16;13.82;;;5.03;;
59512;SDS011;45330;51.634;5.562;2023-06-05T11:01:42;15.52;;;5.10;;
59512;SDS011;45330;51.634;5.562;2023-06-05T11:04:08;13.50;;;4.97;;
59512;SDS011;45330;51.634;5.562;2023-06-05T11:06:34;12.52;;;5.20;;
59512;SDS011;45330;51.634;5.562;2023-06-05T11:09:06;15.30;;;4.95;;
59512;SDS011;45330;51.634;5.562;2023-06-05T11:11:56;14.70;;;4.93;;
59512;SDS011;45330;51.634;5.562;2023-06-05T11:14:24;16.23;;;5.10;;
59512;SDS011;45330;51.634;5.562;2023-06-05T11:16:50;10.80;;;4.22;;
59512;SDS011;45330;51.634;5.562;2023-06-05T11:24:36;15.15;;;4.57;;
59512;SDS011;45330;51.634;5.562;2023-06-05T11:27:03;14.23;;;4.63;;
59512;SDS011;45330;51.634;5.562;2023-06-05T11:29:30;14.27;;;5.28;;
59512;SDS011;45330;51.634;5.562;2023-06-05T11:31:57;12.75;;;4.68;;
59512;SDS011;45330;51.634;5.562;2023-06-05T11:34:23;16.10;;;5.20;;
59512;SDS011;45330;51.634;5.562;2023-06-05T11:36:48;15.40;;;5.00;;
59512;SDS011;45330;51.634;5.562;2023-06-05T11:39:15;14.93;;;4.35;;
59512;SDS011;45330;51.634;5.562;2023-06-05T11:41:48;14.70;;;4.40;;
59512;SDS011;45330;51.634;5.562;2023-06-05T11:44:30;12.57;;;4.15;;
59512;SDS011;45330;51.634;5.562;2023-06-05T11:46:57;13.55;;;4.10;;
59512;SDS011;45330;51.634;5.562;2023-06-05T11:49:25;15.40;;;4.63;;
59512;SDS011;45330;51.634;5.562;2023-06-05T11:51:55;12.73;;;4.70;;
59512;SDS011;45330;51.634;5.562;2023-06-05T11:54:24;14.65;;;4.75;;
59512;SDS011;45330;51.634;5.562;2023-06-05T11:56:59;9.75;;;3.92;;
59512;SDS011;45330;51.634;5.562;2023-06-05T11:59:34;10.60;;;3.60;;
59512;SDS011;45330;51.634;5.562;2023-06-05T12:02:03;12.68;;;3.50;;
59512;SDS011;45330;51.634;5.562;2023-06-05T12:04:30;10.93;;;3.88;;
59512;SDS011;45330;51.634;5.562;2023-06-05T12:06:56;14.00;;;4.68;;
59512;SDS011;45330;51.634;5.562;2023-06-05T12:09:24;11.05;;;4.07;;
59512;SDS011;45330;51.634;5.562;2023-06-05T12:11:50;10.65;;;4.30;;
59512;SDS011;45330;51.634;5.562;2023-06-05T12:14:29;11.65;;;3.72;;
59512;SDS011;45330;51.634;5.562;2023-06-05T12:16:56;10.65;;;4.00;;
59512;SDS011;45330;51.634;5.562;2023-06-05T12:19:22;8.15;;;3.60;;
59512;SDS011;45330;51.634;5.562;2023-06-05T12:21:48;9.27;;;4.00;;
59512;SDS011;45330;51.634;5.562;2023-06-05T12:24:15;11.77;;;4.00;;
59512;SDS011;45330;51.634;5.562;2023-06-05T12:29:22;13.48;;;4.32;;
59512;SDS011;45330;51.634;5.562;2023-06-05T12:31:50;11.55;;;3.88;;
59512;SDS011;45330;51.634;5.562;2023-06-05T12:34:16;9.25;;;3.65;;
59512;SDS011;45330;51.634;5.562;2023-06-05T12:36:42;10.88;;;3.83;;
59512;SDS011;45330;51.634;5.562;2023-06-05T12:39:12;11.48;;;3.70;;
59512;SDS011;45330;51.634;5.562;2023-06-05T12:41:39;7.90;;;3.30;;
59512;SDS011;45330;51.634;5.562;2023-06-05T12:44:05;10.48;;;3.63;;
59512;SDS011;45330;51.634;5.562;2023-06-05T12:46:33;10.07;;;3.78;;
59512;SDS011;45330;51.634;5.562;2023-06-05T12:49:00;10.10;;;3.85;;
59512;SDS011;45330;51.634;5.562;2023-06-05T12:51:27;14.15;;;3.25;;
59512;SDS011;45330;51.634;5.562;2023-06-05T12:53:55;12.07;;;3.90;;
59512;SDS011;45330;51.634;5.562;2023-06-05T12:56:25;6.63;;;3.08;;
59512;SDS011;45330;51.634;5.562;2023-06-05T12:58:56;9.90;;;3.20;;
59512;SDS011;45330;51.634;5.562;2023-06-05T13:01:25;9.65;;;3.40;;
59512;SDS011;45330;51.634;5.562;2023-06-05T13:03:53;9.63;;;3.42;;
59512;SDS011;45330;51.634;5.562;2023-06-05T13:06:19;12.88;;;3.40;;
59512;SDS011;45330;51.634;5.562;2023-06-05T13:08:45;11.98;;;3.95;;
59512;SDS011;45330;51.634;5.562;2023-06-05T13:11:12;9.52;;;3.47;;
59512;SDS011;45330;51.634;5.562;2023-06-05T13:13:38;11.98;;;3.60;;
59512;SDS011;45330;51.634;5.562;2023-06-05T13:16:03;8.80;;;3.10;;
59512;SDS011;45330;51.634;5.562;2023-06-05T13:18:33;5.75;;;2.92;;
59512;SDS011;45330;51.634;5.562;2023-06-05T13:20:59;7.05;;;3.13;;
59512;SDS011;45330;51.634;5.562;2023-06-05T13:23:24;8.23;;;2.97;;
59512;SDS011;45330;51.634;5.562;2023-06-05T13:25:50;9.88;;;3.30;;
59512;SDS011;45330;51.634;5.562;2023-06-05T13:28:16;8.93;;;3.40;;
59512;SDS011;45330;51.634;5.562;2023-06-05T13:30:41;8.70;;;3.63;;
59512;SDS011;45330;51.634;5.562;2023-06-05T13:33:07;11.38;;;3.53;;
59512;SDS011;45330;51.634;5.562;2023-06-05T13:35:32;11.30;;;3.63;;
59512;SDS011;45330;51.634;5.562;2023-06-05T13:37:58;8.32;;;3.20;;
59512;SDS011;45330;51.634;5.562;2023-06-05T13:40:23;8.60;;;3.53;;
59512;SDS011;45330;51.634;5.562;2023-06-05T13:42:51;7.07;;;2.97;;
59512;SDS011;45330;51.634;5.562;2023-06-05T13:45:18;8.98;;;3.22;;
59512;SDS011;45330;51.634;5.562;2023-06-05T13:47:43;8.23;;;3.10;;
59512;SDS011;45330;51.634;5.562;2023-06-05T13:50:09;10.82;;;3.63;;
59512;SDS011;45330;51.634;5.562;2023-06-05T13:52:34;10.77;;;3.63;;
59512;SDS011;45330;51.634;5.562;2023-06-05T13:55:00;9.45;;;3.00;;
59512;SDS011;45330;51.634;5.562;2023-06-05T13:57:26;7.38;;;3.15;;
59512;SDS011;45330;51.634;5.562;2023-06-05T13:59:52;7.13;;;3.20;;
59512;SDS011;45330;51.634;5.562;2023-06-05T14:02:17;10.95;;;3.38;;
59512;SDS011;45330;51.634;5.562;2023-06-05T14:04:43;8.60;;;3.13;;
59512;SDS011;45330;51.634;5.562;2023-06-05T14:07:08;8.13;;;3.10;;
59512;SDS011;45330;51.634;5.562;2023-06-05T14:09:33;7.97;;;2.90;;
59512;SDS011;45330;51.634;5.562;2023-06-05T14:11:59;9.88;;;3.10;;
59512;SDS011;45330;51.634;5.562;2023-06-05T14:14:25;9.82;;;3.35;;
59512;SDS011;45330;51.634;5.562;2023-06-05T14:16:50;7.13;;;2.83;;
59512;SDS011;45330;51.634;5.562;2023-06-05T14:19:16;8.25;;;2.97;;
59512;SDS011;45330;51.634;5.562;2023-06-05T14:21:42;8.52;;;2.92;;
59512;SDS011;45330;51.634;5.562;2023-06-05T14:24:08;7.20;;;2.90;;
59512;SDS011;45330;51.634;5.562;2023-06-05T14:26:33;10.00;;;3.20;;
59512;SDS011;45330;51.634;5.562;2023-06-05T14:28:59;11.00;;;3.35;;
59512;SDS011;45330;51.634;5.562;2023-06-05T14:31:24;8.63;;;3.05;;
59512;SDS011;45330;51.634;5.562;2023-06-05T14:33:52;8.80;;;3.10;;
59512;SDS011;45330;51.634;5.562;2023-06-05T14:36:18;10.23;;;3.33;;
59512;SDS011;45330;51.634;5.562;2023-06-05T14:38:43;11.52;;;3.50;;
59512;SDS011;45330;51.634;5.562;2023-06-05T14:41:08;11.77;;;3.97;;
59512;SDS011;45330;51.634;5.562;2023-06-05T14:43:34;14.38;;;3.92;;
59512;SDS011;45330;51.634;5.562;2023-06-05T14:46:00;8.10;;;3.53;;
59512;SDS011;45330;51.634;5.562;2023-06-05T14:48:26;9.43;;;3.30;;
59512;SDS011;45330;51.634;5.562;2023-06-05T14:50:51;9.35;;;3.30;;
59512;SDS011;45330;51.634;5.562;2023-06-05T14:53:17;10.85;;;3.58;;
59512;SDS011;45330;51.634;5.562;2023-06-05T14:55:43;7.97;;;3.08;;
59512;SDS011;45330;51.634;5.562;2023-06-05T14:58:09;9.48;;;3.55;;
59512;SDS011;45330;51.634;5.562;2023-06-05T15:00:35;7.32;;;2.80;;
59512;SDS011;45330;51.634;5.562;2023-06-05T15:03:01;8.75;;;3.40;;